Time;durP1;ratioP1;P1;durP2;ratioP2;P2;SDS_P1;SDS_P2;PMS_P1;PMS_P2;Temp;Humidity;BMP_temperature;BMP_pressure;BME280_temperature;BME280_humidity;BME280_pressure;Samples;Min_cycle;Max_cycle;Signal;HPM_P1;HPM_P2
2024/02/01 00:01:14;0.00;0.00;0.62;0.00;0.00;0.62;2.37;1.67;;;22.20;22.40;;;;;;2231210;62;20373;-69
2024/02/01 00:03:59;0.00;0.00;0.62;0.00;0.00;0.62;2.47;1.57;;;22.20;22.40;;;;;;2232310;62;20395;-70
2024/02/01 00:06:50;0.00;0.00;0.62;0.00;0.00;0.62;4.63;2.30;;;22.20;22.40;;;;;;2229555;62;20368;-71
2024/02/01 00:09:35;0.00;0.00;0.62;0.00;0.00;0.62;3.30;1.70;;;22.20;22.90;;;;;;2651641;46;20371;-72
2024/02/01 00:12:20;0.00;0.00;0.62;0.00;0.00;0.62;2.60;1.63;;;22.20;22.40;;;;;;2232520;62;20471;-70
2024/02/01 00:15:06;0.00;0.00;0.62;0.00;0.00;0.62;2.30;1.70;;;22.20;22.40;;;;;;2229153;62;20383;-70
2024/02/01 00:17:51;0.00;0.00;0.62;0.00;0.00;0.62;2.40;1.80;;;22.20;22.40;;;;;;2229359;62;20405;-71
2024/02/01 00:20:36;0.00;0.00;0.62;0.00;0.00;0.62;2.70;1.90;;;22.20;22.40;;;;;;2232462;62;20372;-70
2024/02/01 00:23:20;0.00;0.00;0.62;0.00;0.00;0.62;2.50;1.80;;;22.20;22.40;;;;;;2232016;62;20937;-71
2024/02/01 00:26:05;0.00;0.00;0.62;0.00;0.00;0.62;2.63;2.00;;;22.20;22.40;;;;;;2229613;62;20351;-71
2024/02/01 00:28:51;0.00;0.00;0.62;0.00;0.00;0.62;2.50;1.63;;;22.20;22.40;;;;;;2231977;62;20367;-70
2024/02/01 00:31:35;0.00;0.00;0.62;0.00;0.00;0.62;2.13;1.70;;;22.20;22.40;;;;;;2233029;62;20827;-71
2024/02/01 00:34:21;0.00;0.00;0.62;0.00;0.00;0.62;3.37;1.90;;;22.20;22.40;;;;;;2229425;62;20777;-71
2024/02/01 00:37:06;0.00;0.00;0.62;0.00;0.00;0.62;2.97;2.03;;;22.20;22.50;;;;;;2232140;62;20479;-71
2024/02/01 00:39:51;0.00;0.00;0.62;0.00;0.00;0.62;2.60;1.90;;;22.20;22.50;;;;;;2232456;62;20938;-71
2024/02/01 00:42:35;0.00;0.00;0.62;0.00;0.00;0.62;2.80;1.50;;;22.20;22.40;;;;;;2229299;62;20440;-71
2024/02/01 00:45:22;0.00;0.00;0.62;0.00;0.00;0.62;2.40;1.63;;;22.20;22.50;;;;;;2226400;62;20415;-70
2024/02/01 00:48:08;0.00;0.00;0.62;0.00;0.00;0.62;2.80;1.50;;;22.10;22.40;;;;;;2229460;62;20395;-71
2024/02/01 00:50:55;0.00;0.00;0.62;0.00;0.00;0.62;3.47;2.40;;;22.20;22.50;;;;;;2233011;62;20356;-71
2024/02/01 00:53:41;0.00;0.00;0.62;0.00;0.00;0.62;4.23;2.00;;;22.20;22.50;;;;;;2229852;62;20371;-71
2024/02/01 00:56:26;0.00;0.00;0.62;0.00;0.00;0.62;2.20;1.50;;;22.10;22.40;;;;;;2233278;62;20402;-71
2024/02/01 00:59:11;0.00;0.00;0.62;0.00;0.00;0.62;2.80;1.50;;;22.20;22.50;;;;;;2229337;62;20374;-71
2024/02/01 01:01:57;0.00;0.00;0.62;0.00;0.00;0.62;2.20;1.40;;;22.20;22.50;;;;;;2233240;62;20391;-71
2024/02/01 01:04:42;0.00;0.00;0.62;0.00;0.00;0.62;2.03;1.60;;;22.20;22.50;;;;;;2232948;62;20399;-71
2024/02/01 01:07:26;0.00;0.00;0.62;0.00;0.00;0.62;2.53;1.50;;;22.20;22.50;;;;;;2232635;62;20938;-71
2024/02/01 01:10:11;0.00;0.00;0.62;0.00;0.00;0.62;1.90;1.53;;;22.10;22.50;;;;;;2232717;62;20970;-70
2024/02/01 01:12:56;0.00;0.00;0.62;0.00;0.00;0.62;2.13;1.50;;;22.20;22.50;;;;;;2232864;62;20472;-71
2024/02/01 01:15:40;0.00;0.00;0.62;0.00;0.00;0.62;1.73;1.43;;;22.20;22.50;;;;;;2229329;62;20387;-70
2024/02/01 01:18:27;0.00;0.00;0.62;0.00;0.00;0.62;2.17;1.50;;;22.20;22.60;;;;;;2233212;62;20877;-71
2024/02/01 01:21:12;0.00;0.00;0.62;0.00;0.00;0.62;2.27;1.50;;;22.10;22.50;;;;;;2232287;62;20392;-71
2024/02/01 01:23:57;0.00;0.00;0.62;0.00;0.00;0.62;2.37;1.40;;;22.10;22.50;;;;;;2229958;62;20407;-72
2024/02/01 01:26:43;0.00;0.00;0.62;0.00;0.00;0.62;2.37;1.87;;;22.20;22.60;;;;;;2229592;62;20775;-71
2024/02/01 01:29:28;0.00;0.00;0.62;0.00;0.00;0.62;2.00;1.50;;;22.10;22.50;;;;;;2232730;62;20378;-71
2024/02/01 01:32:14;0.00;0.00;0.62;0.00;0.00;0.62;2.40;1.80;;;22.10;22.50;;;;;;2232973;62;20402;-70
2024/02/01 01:35:00;0.00;0.00;0.62;0.00;0.00;0.62;1.93;1.40;;;22.10;22.50;;;;;;2233073;62;20371;-71
2024/02/01 01:37:45;0.00;0.00;0.62;0.00;0.00;0.62;2.47;1.50;;;22.10;22.50;;;;;;2232634;62;20399;-70
2024/02/01 01:40:30;0.00;0.00;0.62;0.00;0.00;0.62;2.53;1.40;;;22.10;22.50;;;;;;2229738;62;20407;-71
2024/02/01 01:43:14;0.00;0.00;0.62;0.00;0.00;0.62;2.23;1.60;;;22.10;22.50;;;;;;2232282;62;20387;-72
2024/02/01 01:46:02;0.00;0.00;0.62;0.00;0.00;0.62;2.03;1.83;;;22.20;22.70;;;;;;2448570;54;20906;-70
2024/02/01 01:48:47;0.00;0.00;0.62;0.00;0.00;0.62;2.00;1.60;;;22.10;22.60;;;;;;2232678;62;20371;-71
2024/02/01 01:51:34;0.00;0.00;0.62;0.00;0.00;0.62;2.10;1.40;;;22.10;22.60;;;;;;2229333;62;20399;-71
2024/02/01 01:54:22;0.00;0.00;0.62;0.00;0.00;0.62;1.70;1.27;;;22.10;22.60;;;;;;2232722;62;20371;-70
2024/02/01 01:57:08;0.00;0.00;0.62;0.00;0.00;0.62;2.77;1.43;;;22.20;22.70;;;;;;2233172;62;20781;-70
2024/02/01 01:59:53;0.00;0.00;0.62;0.00;0.00;0.62;2.07;1.67;;;22.10;22.60;;;;;;2229461;62;20379;-73
2024/02/01 02:02:42;0.00;0.00;0.62;0.00;0.00;0.62;2.53;1.80;;;22.10;22.60;;;;;;2229599;62;20986;-70
2024/02/01 02:05:27;0.00;0.00;0.62;0.00;0.00;0.62;1.97;1.40;;;22.10;22.60;;;;;;2228916;62;21185;-72
2024/02/01 02:08:13;0.00;0.00;0.62;0.00;0.00;0.62;2.30;1.67;;;22.10;22.60;;;;;;2233003;62;20356;-70
2024/02/01 02:10:58;0.00;0.00;0.62;0.00;0.00;0.62;2.43;1.50;;;22.10;22.60;;;;;;2232526;62;20405;-70
2024/02/01 02:13:46;0.00;0.00;0.62;0.00;0.00;0.62;2.00;1.40;;;22.10;22.60;;;;;;2232052;62;20419;-71
2024/02/01 02:16:31;0.00;0.00;0.62;0.00;0.00;0.62;2.43;1.47;;;22.10;22.70;;;;;;2229639;62;20375;-71
2024/02/01 02:19:21;0.00;0.00;0.62;0.00;0.00;0.62;2.20;1.23;;;22.10;22.70;;;;;;2232505;62;20371;-71
2024/02/01 02:22:12;0.00;0.00;0.62;0.00;0.00;0.62;2.03;1.57;;;22.10;22.70;;;;;;2231884;62;20451;-70
2024/02/01 02:24:57;0.00;0.00;0.62;0.00;0.00;0.62;2.07;1.20;;;22.10;22.70;;;;;;2232399;62;20442;-71
2024/02/01 02:27:42;0.00;0.00;0.62;0.00;0.00;0.62;2.23;1.20;;;22.10;23.20;;;;;;2229456;62;20371;-70
2024/02/01 02:30:26;0.00;0.00;0.62;0.00;0.00;0.62;2.20;1.57;;;22.20;23.30;;;;;;2464422;54;20920;-71
2024/02/01 02:33:11;0.00;0.00;0.62;0.00;0.00;0.62;2.00;1.30;;;22.10;22.70;;;;;;2225421;62;20433;-71
2024/02/01 02:35:56;0.00;0.00;0.62;0.00;0.00;0.62;2.30;1.50;;;22.10;22.70;;;;;;2230139;62;20385;-71
2024/02/01 02:38:42;0.00;0.00;0.62;0.00;0.00;0.62;3.13;1.60;;;22.10;22.70;;;;;;2232512;62;20367;-71
2024/02/01 02:41:26;0.00;0.00;0.62;0.00;0.00;0.62;1.80;1.13;;;22.10;22.70;;;;;;2232408;62;20387;-70
2024/02/01 02:44:13;0.00;0.00;0.62;0.00;0.00;0.62;2.03;1.50;;;22.10;22.70;;;;;;2232356;62;20424;-71
2024/02/01 02:46:58;0.00;0.00;0.62;0.00;0.00;0.62;2.30;1.40;;;22.10;22.70;;;;;;2232689;62;20422;-71
2024/02/01 02:49:44;0.00;0.00;0.62;0.00;0.00;0.62;1.87;1.37;;;22.20;22.80;;;;;;2234255;62;20394;-70
2024/02/01 02:52:29;0.00;0.00;0.62;0.00;0.00;0.62;2.00;1.17;;;22.10;22.70;;;;;;2550883;46;20396;-71
2024/02/01 02:55:21;0.00;0.00;0.62;0.00;0.00;0.62;1.83;1.17;;;22.10;22.70;;;;;;2228786;62;20922;-72
2024/02/01 02:58:06;0.00;0.00;0.62;0.00;0.00;0.62;1.80;1.40;;;22.10;22.80;;;;;;2229757;62;20399;-71
2024/02/01 03:00:51;0.00;0.00;0.62;0.00;0.00;0.62;2.00;1.17;;;22.10;22.80;;;;;;2232681;62;20423;-70
2024/02/01 03:03:40;0.00;0.00;0.62;0.00;0.00;0.62;2.27;1.30;;;22.10;22.80;;;;;;2233338;62;20411;-72
2024/02/01 03:06:25;0.00;0.00;0.62;0.00;0.00;0.62;2.07;1.20;;;22.10;22.80;;;;;;2232730;62;20371;-70
2024/02/01 03:09:15;0.00;0.00;0.62;0.00;0.00;0.62;1.67;1.10;;;22.10;22.80;;;;;;2232931;62;20446;-69
2024/02/01 03:12:06;0.00;0.00;0.62;0.00;0.00;0.62;1.70;1.30;;;22.10;22.80;;;;;;2232256;62;20390;-68
2024/02/01 03:14:53;0.00;0.00;0.62;0.00;0.00;0.62;2.00;1.40;;;22.10;22.80;;;;;;2228530;62;20835;-71
2024/02/01 03:17:38;0.00;0.00;0.62;0.00;0.00;0.62;2.90;1.50;;;22.10;22.80;;;;;;2225740;62;20396;-70
2024/02/01 03:20:23;0.00;0.00;0.62;0.00;0.00;0.62;2.00;1.30;;;22.10;22.80;;;;;;2227134;62;20391;-70
2024/02/01 03:23:10;0.00;0.00;0.62;0.00;0.00;0.62;1.60;1.10;;;22.10;22.80;;;;;;2229663;62;20402;-70
2024/02/01 03:25:58;0.00;0.00;0.62;0.00;0.00;0.62;1.60;1.20;;;22.10;22.80;;;;;;2232974;62;20428;-69
2024/02/01 03:28:44;0.00;0.00;0.62;0.00;0.00;0.62;2.53;1.67;;;22.10;22.80;;;;;;2232206;62;20378;-71
2024/02/01 03:31:33;0.00;0.00;0.62;0.00;0.00;0.62;1.80;1.00;;;22.10;22.90;;;;;;2229427;62;20395;-69
2024/02/01 03:34:20;0.00;0.00;0.62;0.00;0.00;0.62;2.00;1.50;;;22.10;22.80;;;;;;2232068;62;20420;-70
2024/02/01 03:37:05;0.00;0.00;0.62;0.00;0.00;0.62;1.97;1.20;;;22.10;22.80;;;;;;2232973;62;20800;-70
2024/02/01 03:39:52;0.00;0.00;0.62;0.00;0.00;0.62;1.50;1.03;;;22.10;22.90;;;;;;2233938;58;20371;-70
2024/02/01 03:42:37;0.00;0.00;0.62;0.00;0.00;0.62;1.80;1.30;;;22.10;22.90;;;;;;2232239;62;20919;-70
2024/02/01 03:45:24;0.00;0.00;0.62;0.00;0.00;0.62;1.70;1.40;;;22.10;22.90;;;;;;2229686;62;20771;-71
2024/02/01 03:48:08;0.00;0.00;0.62;0.00;0.00;0.62;1.60;1.13;;;22.10;22.90;;;;;;2229601;62;20379;-70
2024/02/01 03:50:55;0.00;0.00;0.62;0.00;0.00;0.62;2.30;1.47;;;22.10;22.90;;;;;;2229370;62;20374;-70
2024/02/01 03:53:41;0.00;0.00;0.62;0.00;0.00;0.62;1.80;1.10;;;22.10;22.90;;;;;;2233459;62;20370;-71
2024/02/01 03:56:26;0.00;0.00;0.62;0.00;0.00;0.62;1.90;1.20;;;22.10;22.90;;;;;;2231656;62;20898;-69
2024/02/01 03:59:11;0.00;0.00;0.62;0.00;0.00;0.62;2.23;1.33;;;22.10;22.90;;;;;;2232166;62;20516;-71
2024/02/01 04:02:03;0.00;0.00;0.62;0.00;0.00;0.62;1.97;1.30;;;22.10;22.90;;;;;;2230784;62;20487;-70
2024/02/01 04:04:49;0.00;0.00;0.62;0.00;0.00;0.62;1.90;1.40;;;22.10;22.90;;;;;;2229094;62;20375;-73
2024/02/01 04:07:39;0.00;0.00;0.62;0.00;0.00;0.62;2.13;1.23;;;22.10;22.90;;;;;;2232839;62;20427;-69
2024/02/01 04:10:24;0.00;0.00;0.62;0.00;0.00;0.62;1.90;1.20;;;22.10;22.90;;;;;;2226438;62;20371;-70
2024/02/01 04:13:08;0.00;0.00;0.62;0.00;0.00;0.62;1.83;1.33;;;22.20;23.00;;;;;;2231880;62;20391;-69
2024/02/01 04:15:53;0.00;0.00;0.62;0.00;0.00;0.62;1.90;1.10;;;22.10;22.90;;;;;;2232471;62;20469;-71
2024/02/01 04:18:39;0.00;0.00;0.62;0.00;0.00;0.62;1.57;1.10;;;22.10;22.90;;;;;;2231215;62;20399;-70
2024/02/01 04:21:23;0.00;0.00;0.62;0.00;0.00;0.62;1.67;1.00;;;22.10;23.00;;;;;;2226484;62;20375;-70
2024/02/01 04:24:08;0.00;0.00;0.62;0.00;0.00;0.62;2.00;1.23;;;22.10;23.00;;;;;;2232834;62;20379;-71
2024/02/01 04:26:52;0.00;0.00;0.62;0.00;0.00;0.62;1.60;1.13;;;22.20;23.00;;;;;;2231956;62;20492;-70
2024/02/01 04:29:38;0.00;0.00;0.62;0.00;0.00;0.62;1.50;0.90;;;22.10;23.00;;;;;;2232778;62;20879;-70
2024/02/01 04:32:22;0.00;0.00;0.62;0.00;0.00;0.62;1.87;1.17;;;22.10;23.00;;;;;;2233048;62;20435;-70
2024/02/01 04:35:09;0.00;0.00;0.62;0.00;0.00;0.62;1.77;1.23;;;22.10;23.00;;;;;;2232588;62;20844;-71
2024/02/01 04:37:53;0.00;0.00;0.62;0.00;0.00;0.62;1.57;1.00;;;22.10;23.00;;;;;;2232316;62;20390;-70
2024/02/01 04:40:38;0.00;0.00;0.62;0.00;0.00;0.62;2.23;1.47;;;22.10;23.00;;;;;;2232812;62;20370;-71
2024/02/01 04:43:23;0.00;0.00;0.62;0.00;0.00;0.62;1.70;1.10;;;22.10;23.00;;;;;;2319253;54;20823;-70
2024/02/01 04:46:08;0.00;0.00;0.62;0.00;0.00;0.62;1.80;1.03;;;22.10;23.00;;;;;;2233037;62;20387;-70
2024/02/01 04:48:52;0.00;0.00;0.62;0.00;0.00;0.62;2.00;1.00;;;22.10;23.00;;;;;;2232655;62;20422;-70
2024/02/01 04:51:39;0.00;0.00;0.62;0.00;0.00;0.62;2.00;1.10;;;22.10;23.00;;;;;;2232974;62;20402;-70
2024/02/01 04:54:24;0.00;0.00;0.62;0.00;0.00;0.62;1.70;1.10;;;22.20;23.10;;;;;;2232454;62;20375;-71
2024/02/01 04:57:13;0.00;0.00;0.62;0.00;0.00;0.62;1.90;1.10;;;22.10;23.00;;;;;;2232668;62;20435;-70
2024/02/01 04:59:58;0.00;0.00;0.62;0.00;0.00;0.62;1.90;1.00;;;22.10;23.00;;;;;;2233134;62;20403;-71
2024/02/01 05:02:42;0.00;0.00;0.62;0.00;0.00;0.62;1.60;1.00;;;22.10;23.00;;;;;;2232859;62;20388;-70
2024/02/01 05:05:27;0.00;0.00;0.62;0.00;0.00;0.62;2.10;1.23;;;22.10;23.00;;;;;;2594242;46;20367;-70
2024/02/01 05:08:13;0.00;0.00;0.62;0.00;0.00;0.62;1.40;0.90;;;22.20;23.60;;;;;;2232479;62;20391;-72
2024/02/01 05:10:59;0.00;0.00;0.62;0.00;0.00;0.62;1.60;1.10;;;22.10;23.00;;;;;;2232503;62;20410;-70
2024/02/01 05:13:44;0.00;0.00;0.62;0.00;0.00;0.62;1.40;0.80;;;22.10;23.00;;;;;;2232955;62;20408;-71
2024/02/01 05:16:29;0.00;0.00;0.62;0.00;0.00;0.62;1.57;1.03;;;22.10;23.00;;;;;;2232884;62;20463;-70
2024/02/01 05:19:13;0.00;0.00;0.62;0.00;0.00;0.62;1.97;1.17;;;22.10;23.10;;;;;;2232406;62;20370;-70
2024/02/01 05:21:58;0.00;0.00;0.62;0.00;0.00;0.62;2.10;1.47;;;22.10;23.10;;;;;;2232702;62;20390;-70
2024/02/01 05:24:44;0.00;0.00;0.62;0.00;0.00;0.62;1.63;1.10;;;22.10;23.10;;;;;;2232943;62;20364;-69
2024/02/01 05:27:29;0.00;0.00;0.62;0.00;0.00;0.62;1.67;1.00;;;22.10;23.10;;;;;;2228357;62;20873;-70
2024/02/01 05:30:14;0.00;0.00;0.62;0.00;0.00;0.62;1.40;0.90;;;22.10;23.10;;;;;;2225726;62;20428;-69
2024/02/01 05:33:00;0.00;0.00;0.62;0.00;0.00;0.62;1.50;0.90;;;22.20;23.10;;;;;;2226082;62;20427;-70
2024/02/01 05:35:45;0.00;0.00;0.62;0.00;0.00;0.62;1.67;1.03;;;22.10;23.10;;;;;;2232423;62;20785;-70
2024/02/01 05:38:29;0.00;0.00;0.62;0.00;0.00;0.62;1.67;1.13;;;22.10;23.10;;;;;;2232126;62;20477;-69
2024/02/01 05:41:15;0.00;0.00;0.62;0.00;0.00;0.62;1.60;0.90;;;22.10;23.10;;;;;;2231986;62;20371;-71
2024/02/01 05:44:00;0.00;0.00;0.62;0.00;0.00;0.62;1.70;1.03;;;22.10;23.10;;;;;;2232763;62;20435;-69
2024/02/01 05:46:45;0.00;0.00;0.62;0.00;0.00;0.62;1.43;0.90;;;22.10;23.10;;;;;;2232792;62;20870;-70
2024/02/01 05:49:30;0.00;0.00;0.62;0.00;0.00;0.62;1.80;1.00;;;22.10;23.10;;;;;;2229490;62;20379;-69
2024/02/01 05:52:14;0.00;0.00;0.62;0.00;0.00;0.62;1.60;0.90;;;22.10;23.10;;;;;;2229360;62;20507;-69
2024/02/01 05:54:59;0.00;0.00;0.62;0.00;0.00;0.62;1.40;1.00;;;22.10;23.10;;;;;;2229375;62;20475;-70
2024/02/01 05:57:45;0.00;0.00;0.62;0.00;0.00;0.62;1.90;1.37;;;22.20;23.20;;;;;;2233005;62;20383;-69
2024/02/01 06:00:29;0.00;0.00;0.62;0.00;0.00;0.62;2.00;1.20;;;22.10;23.20;;;;;;2229592;62;20379;-69
2024/02/01 06:03:14;0.00;0.00;0.62;0.00;0.00;0.62;2.07;1.37;;;22.20;23.30;;;;;;2227657;62;20420;-70
2024/02/01 06:05:58;0.00;0.00;0.62;0.00;0.00;0.62;2.90;1.53;;;22.20;23.20;;;;;;2225872;62;20372;-70
2024/02/01 06:08:43;0.00;0.00;0.62;0.00;0.00;0.62;2.23;1.70;;;22.10;23.20;;;;;;2225829;62;20416;-72
2024/02/01 06:11:28;0.00;0.00;0.62;0.00;0.00;0.62;2.60;1.23;;;22.20;23.30;;;;;;2231849;62;20825;-70
2024/02/01 06:14:14;0.00;0.00;0.62;0.00;0.00;0.62;2.50;1.80;;;22.20;23.30;;;;;;2232658;62;20915;-70
2024/02/01 06:16:58;0.00;0.00;0.62;0.00;0.00;0.62;2.77;1.43;;;22.20;23.30;;;;;;2229376;62;20527;-69
2024/02/01 06:19:43;0.00;0.00;0.62;0.00;0.00;0.62;2.60;1.67;;;22.20;23.20;;;;;;2232139;62;20399;-70
2024/02/01 06:22:28;0.00;0.00;0.62;0.00;0.00;0.62;4.40;2.10;;;22.20;23.20;;;;;;2232764;62;20435;-69
2024/02/01 06:25:12;0.00;0.00;0.62;0.00;0.00;0.62;2.20;1.50;;;22.20;23.30;;;;;;2232580;62;20829;-69
2024/02/01 06:27:57;0.00;0.00;0.62;0.00;0.00;0.62;2.97;2.47;;;22.20;23.30;;;;;;2231082;62;20367;-69
2024/02/01 06:30:43;0.00;0.00;0.62;0.00;0.00;0.62;2.97;2.03;;;22.20;23.30;;;;;;2232530;62;20375;-70
2024/02/01 06:33:30;0.00;0.00;0.62;0.00;0.00;0.62;4.77;2.47;;;22.20;23.30;;;;;;2237167;62;20484;-70
2024/02/01 06:36:15;0.00;0.00;0.62;0.00;0.00;0.62;3.53;2.43;;;22.20;23.30;;;;;;2236237;62;20371;-70
2024/02/01 06:41:51;0.00;0.00;0.62;0.00;0.00;0.62;3.50;2.70;;;22.20;23.30;;;;;;2543611;46;20818;-69
2024/02/01 06:44:43;0.00;0.00;0.62;0.00;0.00;0.62;4.70;2.97;;;22.20;23.30;;;;;;2232829;62;21077;-70
2024/02/01 06:47:36;0.00;0.00;0.62;0.00;0.00;0.62;3.90;2.87;;;22.20;23.30;;;;;;2232254;62;21016;-73
2024/02/01 06:53:33;0.00;0.00;0.62;0.00;0.00;0.62;3.80;2.50;;;22.20;23.30;;;;;;2244959;49;20872;-70
2024/02/01 06:56:38;0.00;0.00;0.62;0.00;0.00;0.62;4.63;3.00;;;22.20;23.30;;;;;;2224941;62;20845;-73
2024/02/01 06:59:44;0.00;0.00;0.62;0.00;0.00;0.62;3.93;3.20;;;22.20;23.30;;;;;;2224855;62;20397;-69
2024/02/01 07:02:47;0.00;0.00;0.62;0.00;0.00;0.62;3.40;2.80;;;22.20;23.30;;;;;;2223864;62;20404;-70
2024/02/01 07:05:58;0.00;0.00;0.62;0.00;0.00;0.62;4.40;3.90;;;22.20;23.90;;;;;;2224707;62;20789;-70
2024/02/01 07:11:30;0.00;0.00;0.62;0.00;0.00;0.62;5.70;3.87;;;22.20;23.30;;;;;;2469256;54;20370;-70
2024/02/01 07:14:16;0.00;0.00;0.62;0.00;0.00;0.62;6.30;4.80;;;22.20;23.30;;;;;;2221069;62;20385;-70
2024/02/01 07:17:16;0.00;0.00;0.62;0.00;0.00;0.62;5.33;4.10;;;22.20;23.40;;;;;;2221726;62;20812;-70
2024/02/01 07:20:14;0.00;0.00;0.62;0.00;0.00;0.62;6.70;4.40;;;22.20;23.40;;;;;;2224856;62;20771;-70
2024/02/01 07:23:05;0.00;0.00;0.62;0.00;0.00;0.62;6.23;4.90;;;22.20;23.40;;;;;;2224765;62;20397;-70
2024/02/01 07:26:16;0.00;0.00;0.62;0.00;0.00;0.62;7.00;5.00;;;22.20;23.40;;;;;;2224967;62;20462;-69
2024/02/01 07:59:41;0.00;0.00;0.62;0.00;0.00;0.62;7.30;5.40;;;22.20;23.40;;;;;;2226300;62;20780;-71
2024/02/01 08:02:49;0.00;0.00;0.62;0.00;0.00;0.62;8.30;6.10;;;22.20;23.40;;;;;;2225436;62;20449;-69
2024/02/01 08:08:40;0.00;0.00;0.62;0.00;0.00;0.62;5.93;4.73;;;22.20;23.50;;;;;;2225153;62;20438;-70
2024/02/01 08:11:25;0.00;0.00;0.62;0.00;0.00;0.62;7.60;4.97;;;22.20;23.50;;;;;;2225483;62;20373;-70
2024/02/01 08:14:10;0.00;0.00;0.62;0.00;0.00;0.62;8.00;6.20;;;22.20;23.50;;;;;;2225350;62;20429;-67
2024/02/01 08:16:55;0.00;0.00;0.62;0.00;0.00;0.62;7.33;5.60;;;22.20;23.50;;;;;;2227056;62;20365;-70
2024/02/01 08:19:39;0.00;0.00;0.62;0.00;0.00;0.62;7.53;5.80;;;22.20;24.10;;;;;;2225504;62;20433;-68
2024/02/01 08:22:25;0.00;0.00;0.62;0.00;0.00;0.62;7.43;5.70;;;22.20;23.50;;;;;;2225230;62;20444;-68
2024/02/01 08:25:10;0.00;0.00;0.62;0.00;0.00;0.62;8.00;6.33;;;22.20;23.50;;;;;;2225252;62;20838;-69
2024/02/01 08:27:56;0.00;0.00;0.62;0.00;0.00;0.62;9.33;6.43;;;22.20;23.50;;;;;;2225090;62;20367;-67
2024/02/01 08:30:42;0.00;0.00;0.62;0.00;0.00;0.62;7.93;5.70;;;22.20;24.10;;;;;;2224571;62;20453;-67
2024/02/01 08:33:28;0.00;0.00;0.62;0.00;0.00;0.62;7.90;6.20;;;22.20;23.50;;;;;;2227578;62;20388;-70
2024/02/01 08:36:17;0.00;0.00;0.62;0.00;0.00;0.62;8.60;5.60;;;22.20;23.50;;;;;;2227632;62;20893;-67
2024/02/01 08:39:03;0.00;0.00;0.62;0.00;0.00;0.62;8.50;5.73;;;22.20;23.50;;;;;;2225010;62;20400;-71
2024/02/01 08:41:48;0.00;0.00;0.62;0.00;0.00;0.62;12.07;5.73;;;22.30;23.50;;;;;;2225265;62;20396;-69
2024/02/01 08:44:32;0.00;0.00;0.62;0.00;0.00;0.62;8.70;6.00;;;22.30;23.60;;;;;;2225237;62;20856;-69
2024/02/01 08:47:18;0.00;0.00;0.62;0.00;0.00;0.62;10.50;5.97;;;22.20;23.50;;;;;;2225042;62;20361;-69
2024/02/01 08:50:06;0.00;0.00;0.62;0.00;0.00;0.62;9.87;5.93;;;22.30;23.60;;;;;;2225337;62;20912;-68
2024/02/01 08:52:51;0.00;0.00;0.62;0.00;0.00;0.62;15.93;7.27;;;22.30;23.50;;;;;;2224740;62;20412;-67
2024/02/01 08:55:38;0.00;0.00;0.62;0.00;0.00;0.62;12.20;6.57;;;22.30;23.60;;;;;;2225394;62;20368;-70
2024/02/01 08:58:23;0.00;0.00;0.62;0.00;0.00;0.62;10.77;6.27;;;22.30;23.50;;;;;;2224611;62;20414;-69
2024/02/01 09:01:22;0.00;0.00;0.62;0.00;0.00;0.62;20.03;7.27;;;22.30;23.50;;;;;;2224675;62;20902;-69
2024/02/01 09:04:14;0.00;0.00;0.62;0.00;0.00;0.62;12.73;7.80;;;22.30;23.50;;;;;;2225500;62;20474;-68
2024/02/01 09:06:58;0.00;0.00;0.62;0.00;0.00;0.62;15.47;7.67;;;22.30;23.50;;;;;;2227189;62;20386;-69
2024/02/01 09:09:43;0.00;0.00;0.62;0.00;0.00;0.62;18.10;8.67;;;22.30;23.60;;;;;;2727735;46;20376;-68
2024/02/01 09:12:29;0.00;0.00;0.62;0.00;0.00;0.62;12.60;8.10;;;22.30;23.60;;;;;;2222063;62;20422;-71
2024/02/01 09:15:14;0.00;0.00;0.62;0.00;0.00;0.62;16.00;8.50;;;22.30;23.60;;;;;;2222045;62;20514;-69
2024/02/01 09:17:59;0.00;0.00;0.62;0.00;0.00;0.62;16.50;8.90;;;22.30;23.60;;;;;;2227181;62;20938;-69
2024/02/01 09:20:44;0.00;0.00;0.62;0.00;0.00;0.62;19.60;8.53;;;22.30;23.60;;;;;;2227436;62;20353;-69
2024/02/01 09:23:28;0.00;0.00;0.62;0.00;0.00;0.62;16.37;8.33;;;22.30;23.60;;;;;;2224380;62;20816;-69
2024/02/01 09:26:12;0.00;0.00;0.62;0.00;0.00;0.62;16.10;7.93;;;22.40;23.70;;;;;;2225079;62;20369;-69
2024/02/01 09:28:58;0.00;0.00;0.62;0.00;0.00;0.62;16.17;8.80;;;22.40;23.70;;;;;;2227018;62;20418;-69
2024/02/01 09:31:44;0.00;0.00;0.62;0.00;0.00;0.62;16.83;9.17;;;22.40;23.70;;;;;;2224582;62;20396;-69
2024/02/01 09:34:30;0.00;0.00;0.62;0.00;0.00;0.62;17.60;8.30;;;22.40;23.70;;;;;;2227232;62;20406;-68
2024/02/01 09:37:22;0.00;0.00;0.62;0.00;0.00;0.62;15.80;8.40;;;22.40;23.70;;;;;;2224369;62;20381;-69
2024/02/01 09:40:10;0.00;0.00;0.62;0.00;0.00;0.62;17.73;9.50;;;22.40;23.70;;;;;;2221849;62;20364;-69
2024/02/01 09:42:54;0.00;0.00;0.62;0.00;0.00;0.62;13.53;8.90;;;22.40;23.70;;;;;;2227321;62;20412;-69
2024/02/01 09:45:40;0.00;0.00;0.62;0.00;0.00;0.62;17.03;7.30;;;22.40;23.70;;;;;;2224440;62;20465;-69
2024/02/01 09:48:25;0.00;0.00;0.62;0.00;0.00;0.62;17.00;8.80;;;22.50;23.70;;;;;;2224958;62;20365;-69
2024/02/01 09:51:17;0.00;0.00;0.62;0.00;0.00;0.62;16.30;8.73;;;22.50;23.70;;;;;;2225004;62;20777;-69
2024/02/01 09:54:03;0.00;0.00;0.62;0.00;0.00;0.62;16.60;8.60;;;22.40;23.60;;;;;;2228864;58;20491;-69
2024/02/01 09:56:49;0.00;0.00;0.62;0.00;0.00;0.62;21.57;8.43;;;22.50;23.70;;;;;;2225022;62;20353;-69
2024/02/01 09:59:36;0.00;0.00;0.62;0.00;0.00;0.62;13.17;7.50;;;22.50;23.70;;;;;;2224418;62;20422;-69
2024/02/01 10:02:23;0.00;0.00;0.62;0.00;0.00;0.62;13.77;8.10;;;22.50;23.70;;;;;;2224984;62;20449;-69
2024/02/01 10:05:08;0.00;0.00;0.62;0.00;0.00;0.62;17.03;7.73;;;22.50;23.70;;;;;;2225126;62;20369;-68
2024/02/01 10:07:55;0.00;0.00;0.62;0.00;0.00;0.62;16.27;7.20;;;22.50;23.70;;;;;;2224323;62;20411;-68
2024/02/01 10:10:41;0.00;0.00;0.62;0.00;0.00;0.62;16.93;7.40;;;22.50;23.70;;;;;;2227172;62;20501;-69
2024/02/01 10:13:32;0.00;0.00;0.62;0.00;0.00;0.62;14.87;8.00;;;22.60;23.80;;;;;;2224941;62;20383;-70
2024/02/01 10:16:20;0.00;0.00;0.62;0.00;0.00;0.62;23.97;8.80;;;22.60;23.80;;;;;;2224469;62;20370;-68
2024/02/01 10:19:09;0.00;0.00;0.62;0.00;0.00;0.62;14.23;7.50;;;22.60;23.80;;;;;;2226956;62;20414;-72
2024/02/01 10:22:05;0.00;0.00;0.62;0.00;0.00;0.62;15.30;7.70;;;22.60;23.80;;;;;;2224325;62;20405;-68
2024/02/01 10:24:56;0.00;0.00;0.62;0.00;0.00;0.62;16.13;8.23;;;22.60;23.80;;;;;;2225244;62;20402;-69
2024/02/01 10:27:41;0.00;0.00;0.62;0.00;0.00;0.62;15.53;7.63;;;22.60;23.80;;;;;;2224601;62;20366;-69
2024/02/01 10:30:26;0.00;0.00;0.62;0.00;0.00;0.62;19.70;8.00;;;22.70;23.80;;;;;;2224421;62;20369;-69
2024/02/01 10:33:12;0.00;0.00;0.62;0.00;0.00;0.62;13.30;6.57;;;22.70;23.80;;;;;;2227258;62;20413;-68
2024/02/01 10:36:08;0.00;0.00;0.62;0.00;0.00;0.62;16.20;7.10;;;22.70;23.80;;;;;;2224862;62;20373;-69
2024/02/01 10:38:58;0.00;0.00;0.62;0.00;0.00;0.62;14.97;6.37;;;22.70;23.80;;;;;;2225009;62;20842;-69
2024/02/01 10:41:50;0.00;0.00;0.62;0.00;0.00;0.62;13.63;6.77;;;22.70;23.80;;;;;;2227361;62;20397;-69
2024/02/01 10:44:41;0.00;0.00;0.62;0.00;0.00;0.62;13.30;6.30;;;22.70;23.80;;;;;;2225015;62;20417;-70
2024/02/01 10:47:33;0.00;0.00;0.62;0.00;0.00;0.62;12.80;6.10;;;22.70;23.80;;;;;;2225125;62;20427;-69
2024/02/01 10:50:18;0.00;0.00;0.62;0.00;0.00;0.62;15.93;6.83;;;22.70;23.80;;;;;;2224633;62;20381;-68
